sensor_id;sensor_type;location;lat;lon;timestamp;P1;durP1;ratioP1;P2;durP2;ratioP2
10497;SDS011;5296;51.060;13.750;2023-02-01T00:00:49;3.87;;;2.43;;
10497;SDS011;5296;51.060;13.750;2023-02-01T00:05:54;6.57;;;2.65;;
10497;SDS011;5296;51.060;13.750;2023-02-01T00:10:58;3.78;;;2.30;;
10497;SDS011;5296;51.060;13.750;2023-02-01T00:16:04;4.20;;;2.28;;
10497;SDS011;5296;51.060;13.750;2023-02-01T00:21:10;5.43;;;3.00;;
10497;SDS011;5296;51.060;13.750;2023-02-01T00:31:32;3.78;;;2.40;;
10497;SDS011;5296;51.060;13.750;2023-02-01T00:36:34;6.10;;;2.97;;
10497;SDS011;5296;51.060;13.750;2023-02-01T00:41:36;6.55;;;2.30;;
10497;SDS011;5296;51.060;13.750;2023-02-01T00:46:37;5.35;;;2.92;;
10497;SDS011;5296;51.060;13.750;2023-02-01T00:51:39;4.43;;;2.70;;
10497;SDS011;5296;51.060;13.750;2023-02-01T00:56:41;4.80;;;2.45;;
10497;SDS011;5296;51.060;13.750;2023-02-01T01:01:43;6.15;;;2.50;;
10497;SDS011;5296;51.060;13.750;2023-02-01T01:06:44;6.75;;;2.42;;
10497;SDS011;5296;51.060;13.750;2023-02-01T01:11:46;6.57;;;2.58;;
10497;SDS011;5296;51.060;13.750;2023-02-01T01:16:48;7.80;;;2.72;;
10497;SDS011;5296;51.060;13.750;2023-02-01T01:21:51;6.40;;;2.58;;
10497;SDS011;5296;51.060;13.750;2023-02-01T01:26:53;9.35;;;2.45;;
10497;SDS011;5296;51.060;13.750;2023-02-01T01:31:55;5.45;;;2.55;;
10497;SDS011;5296;51.060;13.750;2023-02-01T01:36:56;5.15;;;2.20;;
10497;SDS011;5296;51.060;13.750;2023-02-01T01:41:58;4.40;;;2.00;;
10497;SDS011;5296;51.060;13.750;2023-02-01T01:47:01;7.15;;;2.40;;
10497;SDS011;5296;51.060;13.750;2023-02-01T01:52:03;6.03;;;2.50;;
10497;SDS011;5296;51.060;13.750;2023-02-01T01:57:12;6.38;;;2.25;;
10497;SDS011;5296;51.060;13.750;2023-02-01T02:02:18;5.37;;;2.20;;
10497;SDS011;5296;51.060;13.750;2023-02-01T02:07:23;5.72;;;2.20;;
10497;SDS011;5296;51.060;13.750;2023-02-01T02:12:28;7.35;;;2.70;;
10497;SDS011;5296;51.060;13.750;2023-02-01T02:17:36;7.75;;;2.30;;
10497;SDS011;5296;51.060;13.750;2023-02-01T02:22:53;5.93;;;1.80;;
10497;SDS011;5296;51.060;13.750;2023-02-01T02:33:39;4.03;;;2.08;;
10497;SDS011;5296;51.060;13.750;2023-02-01T02:39:03;5.80;;;2.30;;
10497;SDS011;5296;51.060;13.750;2023-02-01T02:44:14;5.68;;;2.30;;
10497;SDS011;5296;51.060;13.750;2023-02-01T02:54:43;6.55;;;2.50;;
10497;SDS011;5296;51.060;13.750;2023-02-01T02:59:49;6.15;;;2.25;;
10497;SDS011;5296;51.060;13.750;2023-02-01T03:05:10;7.97;;;2.97;;
10497;SDS011;5296;51.060;13.750;2023-02-01T03:20:51;6.03;;;2.08;;
10497;SDS011;5296;51.060;13.750;2023-02-01T03:25:54;7.30;;;2.70;;
10497;SDS011;5296;51.060;13.750;2023-02-01T03:30:57;5.60;;;2.20;;
10497;SDS011;5296;51.060;13.750;2023-02-01T03:41:34;9.63;;;2.58;;
10497;SDS011;5296;51.060;13.750;2023-02-01T03:46:45;7.25;;;2.40;;
10497;SDS011;5296;51.060;13.750;2023-02-01T03:51:50;6.50;;;2.17;;
10497;SDS011;5296;51.060;13.750;2023-02-01T03:56:52;8.35;;;2.67;;
10497;SDS011;5296;51.060;13.750;2023-02-01T04:01:55;8.15;;;2.60;;
10497;SDS011;5296;51.060;13.750;2023-02-01T04:06:57;7.90;;;2.38;;
10497;SDS011;5296;51.060;13.750;2023-02-01T04:11:59;11.50;;;2.10;;
10497;SDS011;5296;51.060;13.750;2023-02-01T04:17:01;5.80;;;2.50;;
10497;SDS011;5296;51.060;13.750;2023-02-01T04:22:02;6.00;;;2.15;;
10497;SDS011;5296;51.060;13.750;2023-02-01T04:27:04;7.37;;;2.57;;
10497;SDS011;5296;51.060;13.750;2023-02-01T04:32:05;4.95;;;2.20;;
10497;SDS011;5296;51.060;13.750;2023-02-01T04:37:07;5.93;;;2.40;;
10497;SDS011;5296;51.060;13.750;2023-02-01T04:42:09;7.15;;;2.70;;
10497;SDS011;5296;51.060;13.750;2023-02-01T04:47:10;5.57;;;2.20;;
10497;SDS011;5296;51.060;13.750;2023-02-01T04:52:12;8.43;;;2.78;;
10497;SDS011;5296;51.060;13.750;2023-02-01T04:57:14;6.20;;;2.47;;
10497;SDS011;5296;51.060;13.750;2023-02-01T05:02:16;9.85;;;2.70;;
10497;SDS011;5296;51.060;13.750;2023-02-01T05:07:17;6.80;;;2.30;;
10497;SDS011;5296;51.060;13.750;2023-02-01T05:12:19;10.50;;;2.78;;
10497;SDS011;5296;51.060;13.750;2023-02-01T05:17:39;8.23;;;2.30;;
10497;SDS011;5296;51.060;13.750;2023-02-01T05:22:41;5.85;;;2.50;;
10497;SDS011;5296;51.060;13.750;2023-02-01T05:27:43;7.57;;;2.42;;
10497;SDS011;5296;51.060;13.750;2023-02-01T05:32:45;8.27;;;2.35;;
10497;SDS011;5296;51.060;13.750;2023-02-01T05:37:46;9.57;;;2.47;;
10497;SDS011;5296;51.060;13.750;2023-02-01T05:42:48;10.15;;;2.78;;
10497;SDS011;5296;51.060;13.750;2023-02-01T05:47:50;9.38;;;2.60;;
10497;SDS011;5296;51.060;13.750;2023-02-01T05:52:52;7.90;;;2.70;;
10497;SDS011;5296;51.060;13.750;2023-02-01T05:57:53;7.05;;;2.80;;
10497;SDS011;5296;51.060;13.750;2023-02-01T06:02:55;6.90;;;2.78;;
10497;SDS011;5296;51.060;13.750;2023-02-01T06:07:57;10.02;;;3.25;;
10497;SDS011;5296;51.060;13.750;2023-02-01T06:12:59;8.32;;;2.60;;
10497;SDS011;5296;51.060;13.750;2023-02-01T06:18:01;6.53;;;2.25;;
10497;SDS011;5296;51.060;13.750;2023-02-01T06:23:03;7.00;;;2.97;;
10497;SDS011;5296;51.060;13.750;2023-02-01T06:28:06;6.03;;;2.47;;
10497;SDS011;5296;51.060;13.750;2023-02-01T06:33:09;7.88;;;2.45;;
10497;SDS011;5296;51.060;13.750;2023-02-01T06:38:11;7.00;;;2.38;;
10497;SDS011;5296;51.060;13.750;2023-02-01T06:43:12;7.60;;;2.72;;
10497;SDS011;5296;51.060;13.750;2023-02-01T06:48:14;5.90;;;2.08;;
10497;SDS011;5296;51.060;13.750;2023-02-01T06:53:16;9.02;;;3.30;;
10497;SDS011;5296;51.060;13.750;2023-02-01T06:58:17;9.00;;;2.70;;
10497;SDS011;5296;51.060;13.750;2023-02-01T07:03:19;8.63;;;2.60;;
10497;SDS011;5296;51.060;13.750;2023-02-01T07:08:21;9.25;;;2.47;;
10497;SDS011;5296;51.060;13.750;2023-02-01T07:13:23;7.97;;;2.30;;
10497;SDS011;5296;51.060;13.750;2023-02-01T07:18:24;7.65;;;3.03;;
10497;SDS011;5296;51.060;13.750;2023-02-01T07:23:27;6.90;;;2.20;;
10497;SDS011;5296;51.060;13.750;2023-02-01T07:28:31;8.10;;;3.58;;
10497;SDS011;5296;51.060;13.750;2023-02-01T07:33:34;8.50;;;2.92;;
10497;SDS011;5296;51.060;13.750;2023-02-01T07:38:36;7.97;;;2.78;;
10497;SDS011;5296;51.060;13.750;2023-02-01T07:43:38;5.25;;;2.28;;
10497;SDS011;5296;51.060;13.750;2023-02-01T07:48:39;7.07;;;2.42;;
10497;SDS011;5296;51.060;13.750;2023-02-01T07:53:41;6.85;;;2.30;;
10497;SDS011;5296;51.060;13.750;2023-02-01T07:58:46;8.07;;;2.70;;
10497;SDS011;5296;51.060;13.750;2023-02-01T08:03:52;6.43;;;2.40;;
10497;SDS011;5296;51.060;13.750;2023-02-01T08:08:55;9.38;;;2.38;;
10497;SDS011;5296;51.060;13.750;2023-02-01T08:13:57;5.00;;;2.35;;
10497;SDS011;5296;51.060;13.750;2023-02-01T08:18:59;7.72;;;2.53;;
10497;SDS011;5296;51.060;13.750;2023-02-01T08:24:02;11.03;;;2.90;;
10497;SDS011;5296;51.060;13.750;2023-02-01T08:29:05;8.38;;;2.80;;
10497;SDS011;5296;51.060;13.750;2023-02-01T08:34:08;8.98;;;2.65;;
10497;SDS011;5296;51.060;13.750;2023-02-01T08:39:10;8.90;;;3.10;;
10497;SDS011;5296;51.060;13.750;2023-02-01T08:44:12;7.17;;;2.67;;
10497;SDS011;5296;51.060;13.750;2023-02-01T08:49:14;10.15;;;3.28;;
10497;SDS011;5296;51.060;13.750;2023-02-01T08:54:15;8.88;;;2.70;;
10497;SDS011;5296;51.060;13.750;2023-02-01T08:59:17;10.02;;;2.80;;
10497;SDS011;5296;51.060;13.750;2023-02-01T09:04:19;8.55;;;2.33;;
10497;SDS011;5296;51.060;13.750;2023-02-01T09:09:23;7.82;;;2.70;;
10497;SDS011;5296;51.060;13.750;2023-02-01T09:14:25;10.63;;;2.93;;
10497;SDS011;5296;51.060;13.750;2023-02-01T09:19:26;5.60;;;2.87;;
10497;SDS011;5296;51.060;13.750;2023-02-01T09:24:28;4.70;;;2.40;;
10497;SDS011;5296;51.060;13.750;2023-02-01T09:29:30;7.70;;;2.70;;
10497;SDS011;5296;51.060;13.750;2023-02-01T09:34:32;5.85;;;2.38;;
10497;SDS011;5296;51.060;13.750;2023-02-01T09:39:34;10.47;;;2.80;;
10497;SDS011;5296;51.060;13.750;2023-02-01T09:44:45;5.80;;;2.72;;
10497;SDS011;5296;51.060;13.750;2023-02-01T09:50:00;8.85;;;2.47;;
10497;SDS011;5296;51.060;13.750;2023-02-01T09:55:11;6.20;;;2.53;;
10497;SDS011;5296;51.060;13.750;2023-02-01T10:00:23;6.23;;;2.57;;
10497;SDS011;5296;51.060;13.750;2023-02-01T10:11:03;4.15;;;1.60;;
10497;SDS011;5296;51.060;13.750;2023-02-01T10:16:17;2.53;;;1.60;;
10497;SDS011;5296;51.060;13.750;2023-02-01T10:27:32;4.22;;;2.00;;
10497;SDS011;5296;51.060;13.750;2023-02-01T10:32:20;6.63;;;2.72;;
10497;SDS011;5296;51.060;13.750;2023-02-01T10:37:24;5.53;;;2.40;;
10497;SDS011;5296;51.060;13.750;2023-02-01T10:42:32;6.65;;;2.58;;
10497;SDS011;5296;51.060;13.750;2023-02-01T10:47:34;5.68;;;2.08;;
10497;SDS011;5296;51.060;13.750;2023-02-01T10:52:40;7.20;;;2.75;;
10497;SDS011;5296;51.060;13.750;2023-02-01T10:58:07;7.07;;;2.80;;
10497;SDS011;5296;51.060;13.750;2023-02-01T11:08:41;7.43;;;2.50;;
10497;SDS011;5296;51.060;13.750;2023-02-01T11:13:45;6.78;;;2.67;;
10497;SDS011;5296;51.060;13.750;2023-02-01T11:18:53;9.13;;;2.42;;
10497;SDS011;5296;51.060;13.750;2023-02-01T11:24:00;6.43;;;2.30;;
10497;SDS011;5296;51.060;13.750;2023-02-01T11:29:04;7.57;;;2.60;;
10497;SDS011;5296;51.060;13.750;2023-02-01T11:34:13;8.00;;;2.63;;
10497;SDS011;5296;51.060;13.750;2023-02-01T11:49:32;5.88;;;2.85;;
10497;SDS011;5296;51.060;13.750;2023-02-01T12:10:37;7.90;;;2.40;;
10497;SDS011;5296;51.060;13.750;2023-02-01T12:15:57;6.80;;;2.40;;
10497;SDS011;5296;51.060;13.750;2023-02-01T12:47:07;5.07;;;2.28;;
10497;SDS011;5296;51.060;13.750;2023-02-01T12:57:37;4.55;;;1.83;;
10497;SDS011;5296;51.060;13.750;2023-02-01T13:02:44;3.58;;;1.85;;
10497;SDS011;5296;51.060;13.750;2023-02-01T13:07:57;6.15;;;2.10;;
10497;SDS011;5296;51.060;13.750;2023-02-01T13:18:19;7.03;;;2.20;;
10497;SDS011;5296;51.060;13.750;2023-02-01T13:23:29;5.30;;;2.20;;
10497;SDS011;5296;51.060;13.750;2023-02-01T13:44:16;5.13;;;2.30;;
10497;SDS011;5296;51.060;13.750;2023-02-01T13:49:43;4.15;;;2.17;;
10497;SDS011;5296;51.060;13.750;2023-02-01T13:54:45;5.60;;;2.10;;
10497;SDS011;5296;51.060;13.750;2023-02-01T13:59:50;5.40;;;2.03;;
10497;SDS011;5296;51.060;13.750;2023-02-01T14:04:53;7.28;;;2.22;;
10497;SDS011;5296;51.060;13.750;2023-02-01T14:09:55;7.30;;;2.30;;
10497;SDS011;5296;51.060;13.750;2023-02-01T14:15:18;6.68;;;2.25;;
10497;SDS011;5296;51.060;13.750;2023-02-01T14:20:39;7.28;;;2.22;;
10497;SDS011;5296;51.060;13.750;2023-02-01T14:25:42;4.28;;;2.30;;
10497;SDS011;5296;51.060;13.750;2023-02-01T14:30:44;5.30;;;2.10;;
10497;SDS011;5296;51.060;13.750;2023-02-01T14:35:55;5.28;;;2.20;;
10497;SDS011;5296;51.060;13.750;2023-02-01T14:41:18;5.45;;;2.03;;
10497;SDS011;5296;51.060;13.750;2023-02-01T14:52:05;5.05;;;2.17;;
10497;SDS011;5296;51.060;13.750;2023-02-01T14:57:17;7.63;;;2.45;;
10497;SDS011;5296;51.060;13.750;2023-02-01T15:02:21;6.55;;;2.47;;
10497;SDS011;5296;51.060;13.750;2023-02-01T15:07:26;5.30;;;2.47;;
10497;SDS011;5296;51.060;13.750;2023-02-01T15:12:28;7.32;;;2.42;;
10497;SDS011;5296;51.060;13.750;2023-02-01T15:17:33;5.65;;;1.90;;
10497;SDS011;5296;51.060;13.750;2023-02-01T15:22:37;7.05;;;2.33;;
10497;SDS011;5296;51.060;13.750;2023-02-01T15:27:38;9.38;;;2.50;;
10497;SDS011;5296;51.060;13.750;2023-02-01T15:32:41;6.63;;;2.30;;
10497;SDS011;5296;51.060;13.750;2023-02-01T15:37:42;4.80;;;2.42;;
10497;SDS011;5296;51.060;13.750;2023-02-01T15:42:49;5.25;;;2.25;;
10497;SDS011;5296;51.060;13.750;2023-02-01T15:47:55;5.07;;;2.50;;
10497;SDS011;5296;51.060;13.750;2023-02-01T15:52:57;6.60;;;2.58;;
10497;SDS011;5296;51.060;13.750;2023-02-01T15:57:59;6.30;;;2.50;;
10497;SDS011;5296;51.060;13.750;2023-02-01T16:03:02;5.70;;;2.30;;
10497;SDS011;5296;51.060;13.750;2023-02-01T16:08:16;6.93;;;2.60;;
10497;SDS011;5296;51.060;13.750;2023-02-01T16:13:19;5.13;;;2.47;;
10497;SDS011;5296;51.060;13.750;2023-02-01T16:18:24;3.92;;;2.15;;
10497;SDS011;5296;51.060;13.750;2023-02-01T16:23:25;4.15;;;2.35;;
10497;SDS011;5296;51.060;13.750;2023-02-01T16:28:27;8.07;;;2.55;;
10497;SDS011;5296;51.060;13.750;2023-02-01T16:33:29;6.53;;;2.53;;
10497;SDS011;5296;51.060;13.750;2023-02-01T16:38:30;6.72;;;3.05;;
10497;SDS011;5296;51.060;13.750;2023-02-01T16:43:32;5.47;;;3.03;;
10497;SDS011;5296;51.060;13.750;2023-02-01T16:48:34;5.53;;;2.67;;
10497;SDS011;5296;51.060;13.750;2023-02-01T16:53:37;7.68;;;3.22;;
10497;SDS011;5296;51.060;13.750;2023-02-01T16:58:53;5.57;;;2.92;;
10497;SDS011;5296;51.060;13.750;2023-02-01T17:03:55;5.80;;;2.60;;
10497;SDS011;5296;51.060;13.750;2023-02-01T17:08:57;6.95;;;2.53;;
10497;SDS011;5296;51.060;13.750;2023-02-01T17:14:16;1.20;;;1.10;;
10497;SDS011;5296;51.060;13.750;2023-02-01T17:19:20;0.93;;;0.80;;
10497;SDS011;5296;51.060;13.750;2023-02-01T17:24:25;1.52;;;0.88;;
10497;SDS011;5296;51.060;13.750;2023-02-01T17:29:36;1.00;;;0.90;;
10497;SDS011;5296;51.060;13.750;2023-02-01T17:34:37;1.07;;;0.83;;
10497;SDS011;5296;51.060;13.750;2023-02-01T17:39:42;0.93;;;0.80;;
10497;SDS011;5296;51.060;13.750;2023-02-01T17:44:59;0.98;;;0.80;;
10497;SDS011;5296;51.060;13.750;2023-02-01T17:50:03;1.05;;;1.00;;
10497;SDS011;5296;51.060;13.750;2023-02-01T17:55:13;0.70;;;0.70;;
10497;SDS011;5296;51.060;13.750;2023-02-01T18:00:17;1.58;;;1.02;;
10497;SDS011;5296;51.060;13.750;2023-02-01T18:05:24;0.93;;;0.90;;
10497;SDS011;5296;51.060;13.750;2023-02-01T18:10:27;2.33;;;1.35;;
10497;SDS011;5296;51.060;13.750;2023-02-01T18:15:30;1.75;;;1.10;;
10497;SDS011;5296;51.060;13.750;2023-02-01T18:20:32;4.45;;;1.27;;
10497;SDS011;5296;51.060;13.750;2023-02-01T18:25:35;2.88;;;1.35;;
10497;SDS011;5296;51.060;13.750;2023-02-01T18:30:38;4.00;;;1.52;;
10497;SDS011;5296;51.060;13.750;2023-02-01T18:35:40;6.13;;;2.13;;
10497;SDS011;5296;51.060;13.750;2023-02-01T18:40:45;5.37;;;1.53;;
10497;SDS011;5296;51.060;13.750;2023-02-01T18:45:49;3.50;;;1.67;;
10497;SDS011;5296;51.060;13.750;2023-02-01T18:50:51;4.43;;;1.30;;
10497;SDS011;5296;51.060;13.750;2023-02-01T18:55:57;3.35;;;1.38;;
10497;SDS011;5296;51.060;13.750;2023-02-01T19:01:03;3.42;;;1.48;;
10497;SDS011;5296;51.060;13.750;2023-02-01T19:06:06;3.27;;;1.20;;
10497;SDS011;5296;51.060;13.750;2023-02-01T19:11:09;2.57;;;1.20;;
10497;SDS011;5296;51.060;13.750;2023-02-01T19:16:11;3.17;;;1.40;;
10497;SDS011;5296;51.060;13.750;2023-02-01T19:21:13;3.13;;;1.50;;
10497;SDS011;5296;51.060;13.750;2023-02-01T19:26:16;3.80;;;1.33;;
10497;SDS011;5296;51.060;13.750;2023-02-01T19:31:18;4.93;;;1.45;;
10497;SDS011;5296;51.060;13.750;2023-02-01T19:36:19;3.53;;;1.30;;
10497;SDS011;5296;51.060;13.750;2023-02-01T19:41:21;1.33;;;1.10;;
10497;SDS011;5296;51.060;13.750;2023-02-01T19:46:23;1.58;;;1.30;;
10497;SDS011;5296;51.060;13.750;2023-02-01T19:51:25;2.33;;;1.30;;
10497;SDS011;5296;51.060;13.750;2023-02-01T19:56:27;2.13;;;1.27;;
10497;SDS011;5296;51.060;13.750;2023-02-01T20:01:32;2.33;;;1.30;;
10497;SDS011;5296;51.060;13.750;2023-02-01T20:06:37;3.37;;;1.23;;
10497;SDS011;5296;51.060;13.750;2023-02-01T20:11:39;4.40;;;1.20;;
10497;SDS011;5296;51.060;13.750;2023-02-01T20:16:41;4.38;;;1.50;;
10497;SDS011;5296;51.060;13.750;2023-02-01T20:21:43;3.33;;;1.40;;
10497;SDS011;5296;51.060;13.750;2023-02-01T20:26:45;2.30;;;1.40;;
10497;SDS011;5296;51.060;13.750;2023-02-01T20:31:47;1.80;;;1.40;;
10497;SDS011;5296;51.060;13.750;2023-02-01T20:36:49;3.60;;;1.63;;
10497;SDS011;5296;51.060;13.750;2023-02-01T20:41:50;3.67;;;1.30;;
10497;SDS011;5296;51.060;13.750;2023-02-01T20:46:52;4.47;;;1.37;;
10497;SDS011;5296;51.060;13.750;2023-02-01T20:51:53;3.95;;;1.48;;
10497;SDS011;5296;51.060;13.750;2023-02-01T20:56:58;2.03;;;1.20;;
10497;SDS011;5296;51.060;13.750;2023-02-01T21:01:59;3.83;;;1.57;;
10497;SDS011;5296;51.060;13.750;2023-02-01T21:07:01;2.13;;;1.13;;
10497;SDS011;5296;51.060;13.750;2023-02-01T21:12:03;3.25;;;1.63;;
10497;SDS011;5296;51.060;13.750;2023-02-01T21:17:05;1.90;;;1.20;;
10497;SDS011;5296;51.060;13.750;2023-02-01T21:22:07;3.73;;;1.30;;
10497;SDS011;5296;51.060;13.750;2023-02-01T21:27:12;4.53;;;1.50;;
10497;SDS011;5296;51.060;13.750;2023-02-01T21:32:14;2.70;;;1.67;;
10497;SDS011;5296;51.060;13.750;2023-02-01T21:37:15;3.00;;;1.40;;
10497;SDS011;5296;51.060;13.750;2023-02-01T21:42:17;3.85;;;1.40;;
10497;SDS011;5296;51.060;13.750;2023-02-01T21:47:22;3.33;;;1.60;;
10497;SDS011;5296;51.060;13.750;2023-02-01T21:52:27;2.57;;;1.37;;
10497;SDS011;5296;51.060;13.750;2023-02-01T21:57:28;2.60;;;1.40;;
10497;SDS011;5296;51.060;13.750;2023-02-01T22:02:30;2.17;;;1.30;;
10497;SDS011;5296;51.060;13.750;2023-02-01T22:07:32;1.93;;;1.53;;
10497;SDS011;5296;51.060;13.750;2023-02-01T22:12:36;3.75;;;1.50;;
10497;SDS011;5296;51.060;13.750;2023-02-01T22:17:37;2.25;;;1.52;;
10497;SDS011;5296;51.060;13.750;2023-02-01T22:22:39;2.40;;;1.40;;
10497;SDS011;5296;51.060;13.750;2023-02-01T22:27:41;3.17;;;1.42;;
10497;SDS011;5296;51.060;13.750;2023-02-01T22:33:03;2.97;;;2.03;;
10497;SDS011;5296;51.060;13.750;2023-02-01T22:38:04;2.33;;;1.73;;
10497;SDS011;5296;51.060;13.750;2023-02-01T22:43:06;4.07;;;1.70;;
10497;SDS011;5296;51.060;13.750;2023-02-01T22:48:07;3.97;;;1.90;;
10497;SDS011;5296;51.060;13.750;2023-02-01T22:53:09;2.73;;;1.70;;
10497;SDS011;5296;51.060;13.750;2023-02-01T22:58:11;6.03;;;2.03;;
10497;SDS011;5296;51.060;13.750;2023-02-01T23:03:13;4.60;;;1.70;;
10497;SDS011;5296;51.060;13.750;2023-02-01T23:08:14;4.03;;;1.83;;
10497;SDS011;5296;51.060;13.750;2023-02-01T23:13:16;3.90;;;1.80;;
10497;SDS011;5296;51.060;13.750;2023-02-01T23:18:17;4.90;;;1.77;;
10497;SDS011;5296;51.060;13.750;2023-02-01T23:23:19;8.57;;;1.85;;
10497;SDS011;5296;51.060;13.750;2023-02-01T23:28:21;4.17;;;1.67;;
10497;SDS011;5296;51.060;13.750;2023-02-01T23:33:23;3.67;;;1.33;;
10497;SDS011;5296;51.060;13.750;2023-02-01T23:38:26;3.90;;;1.73;;
10497;SDS011;5296;51.060;13.750;2023-02-01T23:43:28;3.93;;;2.00;;
10497;SDS011;5296;51.060;13.750;2023-02-01T23:48:48;4.35;;;1.50;;
10497;SDS011;5296;51.060;13.750;2023-02-01T23:53:53;4.37;;;1.33;;
10497;SDS011;5296;51.060;13.750;2023-02-01T23:58:55;2.72;;;1.30;;
